sensor_id;sensor_type;location;lat;lon;timestamp;temperature;humidity
1476;DHT22;730;48.870;12.542;2023-02-02T00:01:20;5.50;1.00
1476;DHT22;730;48.870;12.542;2023-02-02T00:03:47;5.50;1.00
1476;DHT22;730;48.870;12.542;2023-02-02T00:06:21;5.60;1.00
1476;DHT22;730;48.870;12.542;2023-02-02T00:08:48;5.60;1.00
1476;DHT22;730;48.870;12.542;2023-02-02T00:11:15;5.60;1.00
1476;DHT22;730;48.870;12.542;2023-02-02T00:13:42;5.60;1.00
1476;DHT22;730;48.870;12.542;2023-02-02T00:18:53;5.60;1.00
1476;DHT22;730;48.870;12.542;2023-02-02T00:21:21;5.60;1.00
1476;DHT22;730;48.870;12.542;2023-02-02T00:23:48;5.60;1.00
1476;DHT22;730;48.870;12.542;2023-02-02T00:26:14;5.60;1.00
1476;DHT22;730;48.870;12.542;2023-02-02T00:28:39;5.60;1.00
1476;DHT22;730;48.870;12.542;2023-02-02T00:31:06;5.60;1.00
1476;DHT22;730;48.870;12.542;2023-02-02T00:33:32;5.60;1.00
1476;DHT22;730;48.870;12.542;2023-02-02T00:35:58;5.60;1.00
1476;DHT22;730;48.870;12.542;2023-02-02T00:38:24;5.60;1.00
1476;DHT22;730;48.870;12.542;2023-02-02T00:40:50;5.60;1.00
1476;DHT22;730;48.870;12.542;2023-02-02T00:43:16;5.60;1.00
1476;DHT22;730;48.870;12.542;2023-02-02T00:45:42;5.60;1.00
1476;DHT22;730;48.870;12.542;2023-02-02T00:48:08;5.60;1.00
1476;DHT22;730;48.870;12.542;2023-02-02T00:50:36;5.60;1.00
1476;DHT22;730;48.870;12.542;2023-02-02T00:53:02;5.70;1.00
1476;DHT22;730;48.870;12.542;2023-02-02T00:55:28;5.70;1.00
1476;DHT22;730;48.870;12.542;2023-02-02T00:57:54;5.70;1.00
1476;DHT22;730;48.870;12.542;2023-02-02T01:00:24;5.70;1.00
1476;DHT22;730;48.870;12.542;2023-02-02T01:02:51;5.70;1.00
1476;DHT22;730;48.870;12.542;2023-02-02T01:05:19;5.70;1.00
1476;DHT22;730;48.870;12.542;2023-02-02T01:07:45;5.70;1.00
1476;DHT22;730;48.870;12.542;2023-02-02T01:10:14;5.70;1.00
1476;DHT22;730;48.870;12.542;2023-02-02T01:12:41;5.70;1.00
1476;DHT22;730;48.870;12.542;2023-02-02T01:15:09;5.60;1.00
1476;DHT22;730;48.870;12.542;2023-02-02T01:17:35;5.60;1.00
1476;DHT22;730;48.870;12.542;2023-02-02T01:20:01;5.60;1.00
1476;DHT22;730;48.870;12.542;2023-02-02T01:22:29;5.60;1.00
1476;DHT22;730;48.870;12.542;2023-02-02T01:24:55;5.70;1.00
1476;DHT22;730;48.870;12.542;2023-02-02T01:27:21;5.70;1.00
1476;DHT22;730;48.870;12.542;2023-02-02T01:29:47;5.60;1.00
1476;DHT22;730;48.870;12.542;2023-02-02T01:32:13;5.60;1.00
1476;DHT22;730;48.870;12.542;2023-02-02T01:34:42;5.60;1.00
1476;DHT22;730;48.870;12.542;2023-02-02T01:37:09;5.60;1.00
1476;DHT22;730;48.870;12.542;2023-02-02T01:39:36;5.60;1.00
1476;DHT22;730;48.870;12.542;2023-02-02T01:42:03;5.50;1.00
1476;DHT22;730;48.870;12.542;2023-02-02T01:47:33;5.50;1.00
1476;DHT22;730;48.870;12.542;2023-02-02T01:50:01;5.40;2.00
1476;DHT22;730;48.870;12.542;2023-02-02T01:52:29;5.40;3.60
1476;DHT22;730;48.870;12.542;2023-02-02T01:55:01;5.30;3.70
1476;DHT22;730;48.870;12.542;2023-02-02T01:57:41;5.30;2.20
1476;DHT22;730;48.870;12.542;2023-02-02T02:00:12;5.20;1.00
1476;DHT22;730;48.870;12.542;2023-02-02T02:02:42;5.00;1.00
1476;DHT22;730;48.870;12.542;2023-02-02T02:05:09;4.80;1.00
1476;DHT22;730;48.870;12.542;2023-02-02T02:07:39;4.50;1.00
1476;DHT22;730;48.870;12.542;2023-02-02T02:10:06;4.40;1.00
1476;DHT22;730;48.870;12.542;2023-02-02T02:12:32;4.00;1.00
1476;DHT22;730;48.870;12.542;2023-02-02T02:14:58;3.70;3.20
1476;DHT22;730;48.870;12.542;2023-02-02T02:18:04;3.40;6.70
1476;DHT22;730;48.870;12.542;2023-02-02T02:27:12;2.50;12.60
1476;DHT22;730;48.870;12.542;2023-02-02T02:32:40;2.60;12.90
1476;DHT22;730;48.870;12.542;2023-02-02T02:35:26;2.60;12.80
1476;DHT22;730;48.870;12.542;2023-02-02T02:40:54;2.70;12.40
1476;DHT22;730;48.870;12.542;2023-02-02T02:43:31;2.70;12.20
1476;DHT22;730;48.870;12.542;2023-02-02T02:46:00;2.80;12.10
1476;DHT22;730;48.870;12.542;2023-02-02T02:48:27;2.80;11.80
1476;DHT22;730;48.870;12.542;2023-02-02T02:51:07;2.80;11.40
1476;DHT22;730;48.870;12.542;2023-02-02T02:53:34;2.80;11.20
1476;DHT22;730;48.870;12.542;2023-02-02T02:56:10;2.80;11.20
1476;DHT22;730;48.870;12.542;2023-02-02T02:58:56;2.80;11.30
1476;DHT22;730;48.870;12.542;2023-02-02T03:01:51;2.70;11.30
1476;DHT22;730;48.870;12.542;2023-02-02T03:04:27;2.60;12.10
1476;DHT22;730;48.870;12.542;2023-02-02T03:07:17;2.60;11.90
1476;DHT22;730;48.870;12.542;2023-02-02T03:09:46;2.60;11.90
1476;DHT22;730;48.870;12.542;2023-02-02T03:12:15;2.60;12.00
1476;DHT22;730;48.870;12.542;2023-02-02T03:14:42;2.60;12.40
1476;DHT22;730;48.870;12.542;2023-02-02T03:17:08;2.60;12.40
1476;DHT22;730;48.870;12.542;2023-02-02T03:19:34;2.60;12.40
1476;DHT22;730;48.870;12.542;2023-02-02T03:22:00;2.60;12.50
1476;DHT22;730;48.870;12.542;2023-02-02T03:24:26;2.60;12.50
1476;DHT22;730;48.870;12.542;2023-02-02T03:26:52;2.60;12.70
1476;DHT22;730;48.870;12.542;2023-02-02T03:29:18;2.60;12.30
1476;DHT22;730;48.870;12.542;2023-02-02T03:31:45;2.60;12.20
1476;DHT22;730;48.870;12.542;2023-02-02T03:34:11;2.60;12.00
1476;DHT22;730;48.870;12.542;2023-02-02T03:36:38;2.60;11.90
1476;DHT22;730;48.870;12.542;2023-02-02T03:39:04;2.60;12.00
1476;DHT22;730;48.870;12.542;2023-02-02T03:41:31;2.60;12.30
1476;DHT22;730;48.870;12.542;2023-02-02T03:43:57;2.60;12.30
1476;DHT22;730;48.870;12.542;2023-02-02T03:46:23;2.60;12.20
1476;DHT22;730;48.870;12.542;2023-02-02T03:48:49;2.60;12.00
1476;DHT22;730;48.870;12.542;2023-02-02T03:51:15;2.60;12.20
1476;DHT22;730;48.870;12.542;2023-02-02T03:53:42;2.60;12.20
1476;DHT22;730;48.870;12.542;2023-02-02T03:56:17;2.60;12.20
1476;DHT22;730;48.870;12.542;2023-02-02T03:58:44;2.60;12.00
1476;DHT22;730;48.870;12.542;2023-02-02T04:01:11;2.60;11.90
1476;DHT22;730;48.870;12.542;2023-02-02T04:03:38;2.60;11.90
1476;DHT22;730;48.870;12.542;2023-02-02T04:06:04;2.60;12.20
1476;DHT22;730;48.870;12.542;2023-02-02T04:08:30;2.60;12.20
1476;DHT22;730;48.870;12.542;2023-02-02T04:10:56;2.60;12.30
1476;DHT22;730;48.870;12.542;2023-02-02T04:13:22;2.60;12.40
1476;DHT22;730;48.870;12.542;2023-02-02T04:15:56;2.50;12.50
1476;DHT22;730;48.870;12.542;2023-02-02T04:18:22;2.50;12.80
1476;DHT22;730;48.870;12.542;2023-02-02T04:20:48;2.50;12.30
1476;DHT22;730;48.870;12.542;2023-02-02T04:23:14;2.50;12.30
1476;DHT22;730;48.870;12.542;2023-02-02T04:25:48;2.50;12.50
1476;DHT22;730;48.870;12.542;2023-02-02T04:28:14;2.50;12.70
1476;DHT22;730;48.870;12.542;2023-02-02T04:30:40;2.50;12.90
1476;DHT22;730;48.870;12.542;2023-02-02T04:33:06;2.50;12.80
1476;DHT22;730;48.870;12.542;2023-02-02T04:35:32;2.60;12.60
1476;DHT22;730;48.870;12.542;2023-02-02T04:37:58;2.60;12.40
1476;DHT22;730;48.870;12.542;2023-02-02T04:40:25;2.60;12.50
1476;DHT22;730;48.870;12.542;2023-02-02T04:42:51;2.50;12.60
1476;DHT22;730;48.870;12.542;2023-02-02T04:45:17;2.50;12.90
1476;DHT22;730;48.870;12.542;2023-02-02T04:47:43;2.50;13.10
1476;DHT22;730;48.870;12.542;2023-02-02T04:50:09;2.50;13.20
1476;DHT22;730;48.870;12.542;2023-02-02T04:52:36;2.40;13.50
1476;DHT22;730;48.870;12.542;2023-02-02T04:55:03;2.40;13.80
1476;DHT22;730;48.870;12.542;2023-02-02T04:57:29;2.40;13.80
1476;DHT22;730;48.870;12.542;2023-02-02T04:59:55;2.40;13.90
1476;DHT22;730;48.870;12.542;2023-02-02T05:02:21;2.40;14.00
1476;DHT22;730;48.870;12.542;2023-02-02T05:04:47;2.40;14.50
1476;DHT22;730;48.870;12.542;2023-02-02T05:07:13;2.40;14.50
1476;DHT22;730;48.870;12.542;2023-02-02T05:09:39;2.40;14.50
1476;DHT22;730;48.870;12.542;2023-02-02T05:12:05;2.40;14.70
1476;DHT22;730;48.870;12.542;2023-02-02T05:14:31;2.30;14.40
1476;DHT22;730;48.870;12.542;2023-02-02T05:16:57;2.30;14.60
1476;DHT22;730;48.870;12.542;2023-02-02T05:19:23;2.30;14.80
1476;DHT22;730;48.870;12.542;2023-02-02T05:21:49;2.30;14.90
1476;DHT22;730;48.870;12.542;2023-02-02T05:24:15;2.30;15.00
1476;DHT22;730;48.870;12.542;2023-02-02T05:26:41;2.30;15.40
1476;DHT22;730;48.870;12.542;2023-02-02T05:29:07;2.30;15.00
1476;DHT22;730;48.870;12.542;2023-02-02T05:31:39;2.30;15.20
1476;DHT22;730;48.870;12.542;2023-02-02T05:34:05;2.30;15.20
1476;DHT22;730;48.870;12.542;2023-02-02T05:36:31;2.30;15.00
1476;DHT22;730;48.870;12.542;2023-02-02T05:38:57;2.30;15.20
1476;DHT22;730;48.870;12.542;2023-02-02T05:41:23;2.30;15.00
1476;DHT22;730;48.870;12.542;2023-02-02T05:43:49;2.30;15.10
1476;DHT22;730;48.870;12.542;2023-02-02T05:46:15;2.30;14.90
1476;DHT22;730;48.870;12.542;2023-02-02T05:48:41;2.30;15.00
1476;DHT22;730;48.870;12.542;2023-02-02T05:51:18;2.30;15.10
1476;DHT22;730;48.870;12.542;2023-02-02T05:53:44;2.30;15.20
1476;DHT22;730;48.870;12.542;2023-02-02T05:56:11;2.30;15.10
1476;DHT22;730;48.870;12.542;2023-02-02T05:58:39;2.30;15.10
1476;DHT22;730;48.870;12.542;2023-02-02T06:01:05;2.30;15.10
1476;DHT22;730;48.870;12.542;2023-02-02T06:03:31;2.30;15.00
1476;DHT22;730;48.870;12.542;2023-02-02T06:05:57;2.30;15.00
1476;DHT22;730;48.870;12.542;2023-02-02T06:08:23;2.30;15.00
1476;DHT22;730;48.870;12.542;2023-02-02T06:10:49;2.30;14.90
1476;DHT22;730;48.870;12.542;2023-02-02T06:13:15;2.40;14.80
1476;DHT22;730;48.870;12.542;2023-02-02T06:15:41;2.40;14.90
1476;DHT22;730;48.870;12.542;2023-02-02T06:18:08;2.40;15.00
1476;DHT22;730;48.870;12.542;2023-02-02T06:20:35;2.40;14.80
1476;DHT22;730;48.870;12.542;2023-02-02T06:23:01;2.40;14.90
1476;DHT22;730;48.870;12.542;2023-02-02T06:25:27;2.40;14.70
1476;DHT22;730;48.870;12.542;2023-02-02T06:27:57;2.40;14.50
1476;DHT22;730;48.870;12.542;2023-02-02T06:30:24;2.40;14.70
1476;DHT22;730;48.870;12.542;2023-02-02T06:32:50;2.40;14.80
1476;DHT22;730;48.870;12.542;2023-02-02T06:35:17;2.40;14.80
1476;DHT22;730;48.870;12.542;2023-02-02T06:37:44;2.30;14.70
1476;DHT22;730;48.870;12.542;2023-02-02T06:40:11;2.40;14.80
1476;DHT22;730;48.870;12.542;2023-02-02T06:42:38;2.40;14.80
1476;DHT22;730;48.870;12.542;2023-02-02T06:45:05;2.40;15.00
1476;DHT22;730;48.870;12.542;2023-02-02T06:47:32;2.40;15.10
1476;DHT22;730;48.870;12.542;2023-02-02T06:49:58;2.40;15.10
1476;DHT22;730;48.870;12.542;2023-02-02T06:52:25;2.40;15.40
1476;DHT22;730;48.870;12.542;2023-02-02T06:54:51;2.40;15.60
1476;DHT22;730;48.870;12.542;2023-02-02T06:57:17;2.40;15.80
1476;DHT22;730;48.870;12.542;2023-02-02T06:59:43;2.40;15.70
1476;DHT22;730;48.870;12.542;2023-02-02T07:02:11;2.40;15.70
1476;DHT22;730;48.870;12.542;2023-02-02T07:04:38;2.40;15.50
1476;DHT22;730;48.870;12.542;2023-02-02T07:07:04;2.40;15.50
1476;DHT22;730;48.870;12.542;2023-02-02T07:09:33;2.40;15.20
1476;DHT22;730;48.870;12.542;2023-02-02T07:11:59;2.40;15.50
1476;DHT22;730;48.870;12.542;2023-02-02T07:14:25;2.40;15.60
1476;DHT22;730;48.870;12.542;2023-02-02T07:16:52;2.50;15.50
1476;DHT22;730;48.870;12.542;2023-02-02T07:19:18;2.50;15.30
1476;DHT22;730;48.870;12.542;2023-02-02T07:21:44;2.50;15.20
1476;DHT22;730;48.870;12.542;2023-02-02T07:24:10;2.50;15.50
1476;DHT22;730;48.870;12.542;2023-02-02T07:26:36;2.50;14.80
1476;DHT22;730;48.870;12.542;2023-02-02T07:29:02;2.50;14.40
1476;DHT22;730;48.870;12.542;2023-02-02T07:31:29;2.50;14.20
1476;DHT22;730;48.870;12.542;2023-02-02T07:33:55;2.60;14.10
1476;DHT22;730;48.870;12.542;2023-02-02T07:36:22;2.50;13.90
1476;DHT22;730;48.870;12.542;2023-02-02T07:38:50;2.50;14.00
1476;DHT22;730;48.870;12.542;2023-02-02T07:41:18;2.60;14.00
1476;DHT22;730;48.870;12.542;2023-02-02T07:43:48;2.60;13.90
1476;DHT22;730;48.870;12.542;2023-02-02T07:46:15;2.60;13.90
1476;DHT22;730;48.870;12.542;2023-02-02T07:48:42;2.60;14.00
1476;DHT22;730;48.870;12.542;2023-02-02T07:51:12;2.60;13.90
1476;DHT22;730;48.870;12.542;2023-02-02T07:53:45;2.60;14.10
1476;DHT22;730;48.870;12.542;2023-02-02T07:56:14;2.60;14.00
1476;DHT22;730;48.870;12.542;2023-02-02T07:58:41;2.60;14.20
1476;DHT22;730;48.870;12.542;2023-02-02T08:01:09;2.60;14.30
1476;DHT22;730;48.870;12.542;2023-02-02T08:03:36;2.60;14.40
1476;DHT22;730;48.870;12.542;2023-02-02T08:06:17;2.60;14.40
1476;DHT22;730;48.870;12.542;2023-02-02T08:08:45;2.60;14.70
1476;DHT22;730;48.870;12.542;2023-02-02T08:11:13;2.60;14.60
1476;DHT22;730;48.870;12.542;2023-02-02T08:13:40;2.60;14.80
1476;DHT22;730;48.870;12.542;2023-02-02T08:16:07;2.60;14.60
1476;DHT22;730;48.870;12.542;2023-02-02T08:18:34;2.60;14.80
1476;DHT22;730;48.870;12.542;2023-02-02T08:21:01;2.70;14.60
1476;DHT22;730;48.870;12.542;2023-02-02T08:23:27;2.70;15.00
1476;DHT22;730;48.870;12.542;2023-02-02T08:25:54;2.80;14.30
1476;DHT22;730;48.870;12.542;2023-02-02T08:28:20;2.80;13.90
1476;DHT22;730;48.870;12.542;2023-02-02T08:30:47;2.80;13.50
1476;DHT22;730;48.870;12.542;2023-02-02T08:33:13;2.80;13.30
1476;DHT22;730;48.870;12.542;2023-02-02T08:35:40;2.80;13.70
1476;DHT22;730;48.870;12.542;2023-02-02T08:38:07;2.90;13.50
1476;DHT22;730;48.870;12.542;2023-02-02T08:40:33;3.00;13.50
1476;DHT22;730;48.870;12.542;2023-02-02T08:42:59;3.00;12.90
1476;DHT22;730;48.870;12.542;2023-02-02T08:45:25;3.00;12.80
1476;DHT22;730;48.870;12.542;2023-02-02T08:47:52;3.00;12.50
1476;DHT22;730;48.870;12.542;2023-02-02T08:50:18;3.10;12.30
1476;DHT22;730;48.870;12.542;2023-02-02T08:52:44;3.10;12.30
1476;DHT22;730;48.870;12.542;2023-02-02T08:55:10;3.20;12.10
1476;DHT22;730;48.870;12.542;2023-02-02T08:57:36;3.20;12.00
1476;DHT22;730;48.870;12.542;2023-02-02T09:00:04;3.20;11.90
1476;DHT22;730;48.870;12.542;2023-02-02T09:02:33;3.30;11.50
1476;DHT22;730;48.870;12.542;2023-02-02T09:05:00;3.30;11.60
1476;DHT22;730;48.870;12.542;2023-02-02T09:07:26;3.30;11.60
1476;DHT22;730;48.870;12.542;2023-02-02T09:09:52;3.30;11.60
1476;DHT22;730;48.870;12.542;2023-02-02T09:12:20;3.30;11.80
1476;DHT22;730;48.870;12.542;2023-02-02T09:14:46;3.30;11.60
1476;DHT22;730;48.870;12.542;2023-02-02T09:17:12;3.30;11.90
1476;DHT22;730;48.870;12.542;2023-02-02T09:19:38;3.30;11.70
1476;DHT22;730;48.870;12.542;2023-02-02T09:22:04;3.40;11.30
1476;DHT22;730;48.870;12.542;2023-02-02T09:24:30;3.40;11.20
1476;DHT22;730;48.870;12.542;2023-02-02T09:26:56;3.40;11.10
1476;DHT22;730;48.870;12.542;2023-02-02T09:29:22;3.40;11.10
1476;DHT22;730;48.870;12.542;2023-02-02T09:31:48;3.40;10.50
1476;DHT22;730;48.870;12.542;2023-02-02T09:34:14;3.40;10.70
1476;DHT22;730;48.870;12.542;2023-02-02T09:36:42;3.40;10.70
1476;DHT22;730;48.870;12.542;2023-02-02T09:39:10;3.40;10.90
1476;DHT22;730;48.870;12.542;2023-02-02T09:46:56;3.30;11.00
1476;DHT22;730;48.870;12.542;2023-02-02T09:52:22;3.30;10.80
1476;DHT22;730;48.870;12.542;2023-02-02T09:54:51;3.40;10.70
1476;DHT22;730;48.870;12.542;2023-02-02T09:57:26;3.40;10.50
1476;DHT22;730;48.870;12.542;2023-02-02T09:59:53;3.30;9.70
1476;DHT22;730;48.870;12.542;2023-02-02T10:02:30;3.30;9.70
1476;DHT22;730;48.870;12.542;2023-02-02T10:05:04;3.30;9.90
1476;DHT22;730;48.870;12.542;2023-02-02T10:07:43;3.30;9.90
1476;DHT22;730;48.870;12.542;2023-02-02T10:10:26;3.30;9.60
1476;DHT22;730;48.870;12.542;2023-02-02T10:13:05;3.30;9.70
1476;DHT22;730;48.870;12.542;2023-02-02T10:15:41;3.40;9.90
1476;DHT22;730;48.870;12.542;2023-02-02T10:21:22;3.40;9.50
1476;DHT22;730;48.870;12.542;2023-02-02T10:23:50;3.40;9.30
1476;DHT22;730;48.870;12.542;2023-02-02T10:26:35;3.30;9.30
1476;DHT22;730;48.870;12.542;2023-02-02T10:29:15;3.40;9.10
1476;DHT22;730;48.870;12.542;2023-02-02T10:31:48;3.30;8.80
1476;DHT22;730;48.870;12.542;2023-02-02T10:34:37;3.30;9.30
1476;DHT22;730;48.870;12.542;2023-02-02T10:37:21;3.20;9.40
1476;DHT22;730;48.870;12.542;2023-02-02T10:45:42;3.20;8.90
1476;DHT22;730;48.870;12.542;2023-02-02T10:48:17;3.20;9.40
1476;DHT22;730;48.870;12.542;2023-02-02T10:51:10;3.10;9.60
1476;DHT22;730;48.870;12.542;2023-02-02T10:53:39;3.10;9.70
1476;DHT22;730;48.870;12.542;2023-02-02T10:56:10;3.10;9.90
1476;DHT22;730;48.870;12.542;2023-02-02T10:59:04;3.10;9.90
1476;DHT22;730;48.870;12.542;2023-02-02T11:01:31;3.10;9.80
1476;DHT22;730;48.870;12.542;2023-02-02T11:03:57;3.00;9.90
1476;DHT22;730;48.870;12.542;2023-02-02T11:06:42;2.90;10.40
1476;DHT22;730;48.870;12.542;2023-02-02T11:09:18;2.80;11.00
1476;DHT22;730;48.870;12.542;2023-02-02T11:11:45;2.70;11.50
1476;DHT22;730;48.870;12.542;2023-02-02T11:14:19;2.70;11.90
1476;DHT22;730;48.870;12.542;2023-02-02T11:17:01;2.70;12.20
1476;DHT22;730;48.870;12.542;2023-02-02T11:19:30;2.80;12.10
1476;DHT22;730;48.870;12.542;2023-02-02T11:22:03;2.70;11.90
1476;DHT22;730;48.870;12.542;2023-02-02T11:27:12;2.70;12.40
1476;DHT22;730;48.870;12.542;2023-02-02T11:32:28;2.80;12.20
1476;DHT22;730;48.870;12.542;2023-02-02T11:37:27;2.80;11.90
1476;DHT22;730;48.870;12.542;2023-02-02T11:39:53;2.80;11.80
1476;DHT22;730;48.870;12.542;2023-02-02T11:42:23;2.80;12.00
1476;DHT22;730;48.870;12.542;2023-02-02T11:44:56;2.80;12.10
1476;DHT22;730;48.870;12.542;2023-02-02T11:47:29;2.80;12.20
1476;DHT22;730;48.870;12.542;2023-02-02T11:49:58;2.80;12.00
1476;DHT22;730;48.870;12.542;2023-02-02T11:52:27;2.80;11.80
1476;DHT22;730;48.870;12.542;2023-02-02T11:55:00;2.80;11.70
1476;DHT22;730;48.870;12.542;2023-02-02T11:57:27;2.70;11.90
1476;DHT22;730;48.870;12.542;2023-02-02T12:02:35;2.70;12.60
1476;DHT22;730;48.870;12.542;2023-02-02T12:07:38;2.80;12.60
1476;DHT22;730;48.870;12.542;2023-02-02T12:13:09;2.70;12.50
1476;DHT22;730;48.870;12.542;2023-02-02T12:15:51;2.70;12.30
1476;DHT22;730;48.870;12.542;2023-02-02T12:18:32;2.70;12.50
1476;DHT22;730;48.870;12.542;2023-02-02T12:21:29;2.70;13.00
1476;DHT22;730;48.870;12.542;2023-02-02T12:26:36;2.60;13.20
1476;DHT22;730;48.870;12.542;2023-02-02T12:32:19;2.60;13.10
1476;DHT22;730;48.870;12.542;2023-02-02T12:35:00;2.50;13.50
1476;DHT22;730;48.870;12.542;2023-02-02T12:37:42;2.60;13.60
1476;DHT22;730;48.870;12.542;2023-02-02T12:57:29;2.70;13.00
1476;DHT22;730;48.870;12.542;2023-02-02T13:08:33;3.00;11.70
1476;DHT22;730;48.870;12.542;2023-02-02T13:11:12;3.00;11.60
1476;DHT22;730;48.870;12.542;2023-02-02T13:14:08;3.00;11.20
1476;DHT22;730;48.870;12.542;2023-02-02T13:16:38;3.00;11.20
1476;DHT22;730;48.870;12.542;2023-02-02T13:19:42;3.00;11.00
1476;DHT22;730;48.870;12.542;2023-02-02T13:22:23;3.10;11.20
1476;DHT22;730;48.870;12.542;2023-02-02T13:24:54;3.10;10.70
1476;DHT22;730;48.870;12.542;2023-02-02T13:27:20;3.10;10.60
1476;DHT22;730;48.870;12.542;2023-02-02T13:29:57;3.20;10.40
1476;DHT22;730;48.870;12.542;2023-02-02T13:32:35;3.20;10.50
1476;DHT22;730;48.870;12.542;2023-02-02T13:35:30;3.20;10.60
1476;DHT22;730;48.870;12.542;2023-02-02T13:38:18;3.30;9.60
1476;DHT22;730;48.870;12.542;2023-02-02T13:40:46;3.30;8.80
1476;DHT22;730;48.870;12.542;2023-02-02T13:43:50;3.20;9.20
1476;DHT22;730;48.870;12.542;2023-02-02T13:49:06;3.20;8.80
1476;DHT22;730;48.870;12.542;2023-02-02T13:51:51;3.20;9.20
1476;DHT22;730;48.870;12.542;2023-02-02T14:02:40;3.10;9.40
1476;DHT22;730;48.870;12.542;2023-02-02T14:05:26;3.10;9.50
1476;DHT22;730;48.870;12.542;2023-02-02T14:10:27;3.00;9.80
1476;DHT22;730;48.870;12.542;2023-02-02T14:12:54;3.00;10.10
1476;DHT22;730;48.870;12.542;2023-02-02T14:15:37;3.00;10.20
1476;DHT22;730;48.870;12.542;2023-02-02T14:18:04;3.00;10.00
1476;DHT22;730;48.870;12.542;2023-02-02T14:20:45;3.10;10.10
1476;DHT22;730;48.870;12.542;2023-02-02T14:26:38;3.10;9.20
1476;DHT22;730;48.870;12.542;2023-02-02T14:34:41;3.20;9.00
1476;DHT22;730;48.870;12.542;2023-02-02T14:37:33;3.20;8.80
1476;DHT22;730;48.870;12.542;2023-02-02T14:43:04;3.30;9.00
1476;DHT22;730;48.870;12.542;2023-02-02T14:48:35;3.30;9.30
1476;DHT22;730;48.870;12.542;2023-02-02T14:51:17;3.30;9.40
1476;DHT22;730;48.870;12.542;2023-02-02T14:53:51;3.40;8.90
1476;DHT22;730;48.870;12.542;2023-02-02T14:56:19;3.40;8.90
1476;DHT22;730;48.870;12.542;2023-02-02T14:58:55;3.40;8.40
1476;DHT22;730;48.870;12.542;2023-02-02T15:01:33;3.40;7.70
1476;DHT22;730;48.870;12.542;2023-02-02T15:04:24;3.50;7.50
1476;DHT22;730;48.870;12.542;2023-02-02T15:06:51;3.40;7.30
1476;DHT22;730;48.870;12.542;2023-02-02T15:17:33;3.40;7.90
1476;DHT22;730;48.870;12.542;2023-02-02T15:34:03;3.30;7.80
1476;DHT22;730;48.870;12.542;2023-02-02T15:36:37;3.30;8.00
1476;DHT22;730;48.870;12.542;2023-02-02T15:39:12;3.10;8.20
1476;DHT22;730;48.870;12.542;2023-02-02T15:41:51;3.10;8.70
1476;DHT22;730;48.870;12.542;2023-02-02T15:44:38;2.90;8.90
1476;DHT22;730;48.870;12.542;2023-02-02T15:47:10;2.90;9.60
1476;DHT22;730;48.870;12.542;2023-02-02T15:49:38;2.80;9.80
1476;DHT22;730;48.870;12.542;2023-02-02T15:52:16;2.80;10.40
1476;DHT22;730;48.870;12.542;2023-02-02T15:54:57;2.80;10.70
1476;DHT22;730;48.870;12.542;2023-02-02T15:57:30;2.70;10.80
1476;DHT22;730;48.870;12.542;2023-02-02T15:59:58;2.70;10.90
1476;DHT22;730;48.870;12.542;2023-02-02T16:02:41;2.70;11.30
1476;DHT22;730;48.870;12.542;2023-02-02T16:07:54;2.80;11.10
1476;DHT22;730;48.870;12.542;2023-02-02T16:10:21;2.80;10.70
1476;DHT22;730;48.870;12.542;2023-02-02T16:12:47;2.80;10.90
1476;DHT22;730;48.870;12.542;2023-02-02T16:15:21;2.80;11.00
1476;DHT22;730;48.870;12.542;2023-02-02T16:18:02;2.80;10.90
1476;DHT22;730;48.870;12.542;2023-02-02T16:20:31;2.80;11.20
1476;DHT22;730;48.870;12.542;2023-02-02T16:22:59;2.70;11.10
1476;DHT22;730;48.870;12.542;2023-02-02T16:25:30;2.70;11.60
1476;DHT22;730;48.870;12.542;2023-02-02T16:27:58;2.70;11.70
1476;DHT22;730;48.870;12.542;2023-02-02T16:30:37;2.70;11.60
1476;DHT22;730;48.870;12.542;2023-02-02T16:35:51;2.70;12.10
1476;DHT22;730;48.870;12.542;2023-02-02T16:38:30;2.70;12.20
1476;DHT22;730;48.870;12.542;2023-02-02T16:41:11;2.70;12.40
1476;DHT22;730;48.870;12.542;2023-02-02T16:43:42;2.60;12.20
1476;DHT22;730;48.870;12.542;2023-02-02T16:46:15;2.60;12.30
1476;DHT22;730;48.870;12.542;2023-02-02T16:48:57;2.60;12.60
1476;DHT22;730;48.870;12.542;2023-02-02T16:53:59;2.70;12.40
1476;DHT22;730;48.870;12.542;2023-02-02T16:56:38;2.70;12.50
1476;DHT22;730;48.870;12.542;2023-02-02T16:59:29;2.70;12.30
1476;DHT22;730;48.870;12.542;2023-02-02T17:01:56;2.70;12.30
1476;DHT22;730;48.870;12.542;2023-02-02T17:04:33;2.80;11.90
1476;DHT22;730;48.870;12.542;2023-02-02T17:07:09;2.80;11.80
1476;DHT22;730;48.870;12.542;2023-02-02T17:09:40;2.80;11.60
1476;DHT22;730;48.870;12.542;2023-02-02T17:14:59;2.80;11.70
1476;DHT22;730;48.870;12.542;2023-02-02T17:17:29;2.80;11.50
1476;DHT22;730;48.870;12.542;2023-02-02T17:19:55;2.80;11.40
1476;DHT22;730;48.870;12.542;2023-02-02T17:22:23;2.80;11.60
1476;DHT22;730;48.870;12.542;2023-02-02T17:24:51;2.80;11.40
1476;DHT22;730;48.870;12.542;2023-02-02T17:27:25;2.80;11.70
1476;DHT22;730;48.870;12.542;2023-02-02T17:29:52;2.80;11.80
1476;DHT22;730;48.870;12.542;2023-02-02T17:32:18;2.80;11.80
1476;DHT22;730;48.870;12.542;2023-02-02T17:34:44;2.80;11.70
1476;DHT22;730;48.870;12.542;2023-02-02T17:37:11;2.90;11.60
1476;DHT22;730;48.870;12.542;2023-02-02T17:39:37;2.90;11.40
1476;DHT22;730;48.870;12.542;2023-02-02T17:42:04;2.90;11.30
1476;DHT22;730;48.870;12.542;2023-02-02T17:44:30;2.90;11.30
1476;DHT22;730;48.870;12.542;2023-02-02T17:46:56;2.90;11.10
1476;DHT22;730;48.870;12.542;2023-02-02T17:49:23;2.90;11.30
1476;DHT22;730;48.870;12.542;2023-02-02T17:51:49;2.90;11.30
1476;DHT22;730;48.870;12.542;2023-02-02T17:54:15;2.90;11.40
1476;DHT22;730;48.870;12.542;2023-02-02T17:56:42;2.90;11.50
1476;DHT22;730;48.870;12.542;2023-02-02T17:59:08;2.80;11.40
1476;DHT22;730;48.870;12.542;2023-02-02T18:01:37;2.80;11.50
1476;DHT22;730;48.870;12.542;2023-02-02T18:04:04;2.80;12.20
1476;DHT22;730;48.870;12.542;2023-02-02T18:06:30;2.80;11.50
1476;DHT22;730;48.870;12.542;2023-02-02T18:08:57;2.80;11.60
1476;DHT22;730;48.870;12.542;2023-02-02T18:11:23;2.80;11.60
1476;DHT22;730;48.870;12.542;2023-02-02T18:13:49;2.80;12.20
1476;DHT22;730;48.870;12.542;2023-02-02T18:16:15;2.80;11.90
1476;DHT22;730;48.870;12.542;2023-02-02T18:18:41;2.70;12.10
1476;DHT22;730;48.870;12.542;2023-02-02T18:21:11;2.70;12.10
1476;DHT22;730;48.870;12.542;2023-02-02T18:23:39;2.70;12.30
1476;DHT22;730;48.870;12.542;2023-02-02T18:26:10;2.70;12.40
1476;DHT22;730;48.870;12.542;2023-02-02T18:28:37;2.70;12.50
1476;DHT22;730;48.870;12.542;2023-02-02T18:31:09;2.70;12.70
1476;DHT22;730;48.870;12.542;2023-02-02T18:33:35;2.70;12.80
1476;DHT22;730;48.870;12.542;2023-02-02T18:36:09;2.70;12.60
1476;DHT22;730;48.870;12.542;2023-02-02T18:38:38;2.70;12.30
1476;DHT22;730;48.870;12.542;2023-02-02T18:41:04;2.70;12.20
1476;DHT22;730;48.870;12.542;2023-02-02T18:43:30;2.70;12.30
1476;DHT22;730;48.870;12.542;2023-02-02T18:46:01;2.70;12.40
1476;DHT22;730;48.870;12.542;2023-02-02T18:48:28;2.70;12.50
1476;DHT22;730;48.870;12.542;2023-02-02T18:50:54;2.70;12.40
1476;DHT22;730;48.870;12.542;2023-02-02T18:53:20;2.60;12.70
1476;DHT22;730;48.870;12.542;2023-02-02T18:55:46;2.60;12.70
1476;DHT22;730;48.870;12.542;2023-02-02T18:58:12;2.70;12.80
1476;DHT22;730;48.870;12.542;2023-02-02T19:00:40;2.70;12.80
1476;DHT22;730;48.870;12.542;2023-02-02T19:03:06;2.60;12.60
1476;DHT22;730;48.870;12.542;2023-02-02T19:05:33;2.70;12.70